sensor_id;sensor_type;location;lat;lon;timestamp;P1;durP1;ratioP1;P2;durP2;ratioP2
31764;SDS011;18338;53.240;8.798;2022-12-29T00:01:57;10.82;;;9.50;;
31764;SDS011;18338;53.240;8.798;2022-12-29T00:04:23;12.95;;;9.63;;
31764;SDS011;18338;53.240;8.798;2022-12-29T00:06:51;10.50;;;8.80;;
31764;SDS011;18338;53.240;8.798;2022-12-29T00:09:19;10.00;;;9.00;;
31764;SDS011;18338;53.240;8.798;2022-12-29T00:11:46;10.80;;;9.35;;
31764;SDS011;18338;53.240;8.798;2022-12-29T00:14:14;8.95;;;8.07;;
31764;SDS011;18338;53.240;8.798;2022-12-29T00:17:03;9.48;;;7.78;;
31764;SDS011;18338;53.240;8.798;2022-12-29T00:19:30;8.75;;;7.90;;
31764;SDS011;18338;53.240;8.798;2022-12-29T00:22:15;8.18;;;7.47;;
31764;SDS011;18338;53.240;8.798;2022-12-29T00:25:00;7.47;;;6.88;;
31764;SDS011;18338;53.240;8.798;2022-12-29T00:27:28;8.00;;;7.20;;
31764;SDS011;18338;53.240;8.798;2022-12-29T00:30:20;9.75;;;8.05;;
31764;SDS011;18338;53.240;8.798;2022-12-29T00:33:10;9.73;;;8.82;;
31764;SDS011;18338;53.240;8.798;2022-12-29T00:38:55;9.60;;;8.80;;
31764;SDS011;18338;53.240;8.798;2022-12-29T00:41:43;9.65;;;8.85;;
31764;SDS011;18338;53.240;8.798;2022-12-29T00:44:28;10.10;;;9.13;;
31764;SDS011;18338;53.240;8.798;2022-12-29T00:46:55;9.93;;;8.93;;
31764;SDS011;18338;53.240;8.798;2022-12-29T00:49:22;10.13;;;9.13;;
31764;SDS011;18338;53.240;8.798;2022-12-29T00:52:03;10.20;;;9.30;;
31764;SDS011;18338;53.240;8.798;2022-12-29T00:54:33;9.93;;;9.02;;
31764;SDS011;18338;53.240;8.798;2022-12-29T00:57:01;10.57;;;9.55;;
31764;SDS011;18338;53.240;8.798;2022-12-29T00:59:29;11.18;;;10.07;;
31764;SDS011;18338;53.240;8.798;2022-12-29T01:01:56;10.65;;;9.65;;
31764;SDS011;18338;53.240;8.798;2022-12-29T01:04:24;10.70;;;9.70;;
31764;SDS011;18338;53.240;8.798;2022-12-29T01:06:52;11.65;;;10.63;;
31764;SDS011;18338;53.240;8.798;2022-12-29T01:09:19;13.18;;;11.98;;
31764;SDS011;18338;53.240;8.798;2022-12-29T01:12:07;11.40;;;10.27;;
31764;SDS011;18338;53.240;8.798;2022-12-29T01:14:34;11.30;;;10.10;;
31764;SDS011;18338;53.240;8.798;2022-12-29T01:17:02;11.95;;;10.75;;
31764;SDS011;18338;53.240;8.798;2022-12-29T01:19:29;11.77;;;10.68;;
31764;SDS011;18338;53.240;8.798;2022-12-29T01:21:55;12.75;;;11.60;;
31764;SDS011;18338;53.240;8.798;2022-12-29T01:24:22;13.40;;;12.00;;
31764;SDS011;18338;53.240;8.798;2022-12-29T01:26:50;13.23;;;11.88;;
31764;SDS011;18338;53.240;8.798;2022-12-29T01:29:16;11.68;;;10.57;;
31764;SDS011;18338;53.240;8.798;2022-12-29T01:31:43;12.50;;;11.20;;
31764;SDS011;18338;53.240;8.798;2022-12-29T01:34:10;12.52;;;11.32;;
31764;SDS011;18338;53.240;8.798;2022-12-29T01:36:37;13.07;;;11.75;;
31764;SDS011;18338;53.240;8.798;2022-12-29T01:39:04;12.73;;;11.55;;
31764;SDS011;18338;53.240;8.798;2022-12-29T01:41:32;13.80;;;12.40;;
31764;SDS011;18338;53.240;8.798;2022-12-29T01:43:59;11.55;;;10.55;;
31764;SDS011;18338;53.240;8.798;2022-12-29T01:46:29;12.15;;;10.95;;
31764;SDS011;18338;53.240;8.798;2022-12-29T01:49:02;11.30;;;10.20;;
31764;SDS011;18338;53.240;8.798;2022-12-29T01:51:35;10.00;;;9.13;;
31764;SDS011;18338;53.240;8.798;2022-12-29T01:54:16;9.90;;;9.05;;
31764;SDS011;18338;53.240;8.798;2022-12-29T01:56:47;9.50;;;8.60;;
31764;SDS011;18338;53.240;8.798;2022-12-29T01:59:18;10.40;;;9.35;;
31764;SDS011;18338;53.240;8.798;2022-12-29T02:01:49;8.95;;;8.15;;
31764;SDS011;18338;53.240;8.798;2022-12-29T02:04:17;9.20;;;8.40;;
31764;SDS011;18338;53.240;8.798;2022-12-29T02:06:48;9.25;;;8.45;;
31764;SDS011;18338;53.240;8.798;2022-12-29T02:09:19;9.52;;;8.73;;
31764;SDS011;18338;53.240;8.798;2022-12-29T02:11:46;8.93;;;8.02;;
31764;SDS011;18338;53.240;8.798;2022-12-29T02:14:13;9.55;;;8.75;;
31764;SDS011;18338;53.240;8.798;2022-12-29T02:16:56;8.95;;;8.25;;
31764;SDS011;18338;53.240;8.798;2022-12-29T02:20:02;8.80;;;8.10;;
31764;SDS011;18338;53.240;8.798;2022-12-29T02:37:04;7.90;;;7.20;;
31764;SDS011;18338;53.240;8.798;2022-12-29T02:39:39;8.07;;;7.28;;
31764;SDS011;18338;53.240;8.798;2022-12-29T02:42:31;8.48;;;7.10;;
31764;SDS011;18338;53.240;8.798;2022-12-29T02:45:08;7.00;;;6.30;;
31764;SDS011;18338;53.240;8.798;2022-12-29T02:50:34;7.40;;;6.70;;
31764;SDS011;18338;53.240;8.798;2022-12-29T02:53:06;7.57;;;6.63;;
31764;SDS011;18338;53.240;8.798;2022-12-29T02:55:37;7.30;;;6.60;;
31764;SDS011;18338;53.240;8.798;2022-12-29T02:58:17;7.13;;;6.50;;
31764;SDS011;18338;53.240;8.798;2022-12-29T03:07:03;6.90;;;6.22;;
31764;SDS011;18338;53.240;8.798;2022-12-29T03:12:15;6.05;;;5.55;;
31764;SDS011;18338;53.240;8.798;2022-12-29T03:15:20;6.47;;;5.93;;
31764;SDS011;18338;53.240;8.798;2022-12-29T03:18:19;6.88;;;6.28;;
31764;SDS011;18338;53.240;8.798;2022-12-29T03:20:55;6.65;;;6.15;;
31764;SDS011;18338;53.240;8.798;2022-12-29T03:23:26;6.72;;;6.10;;
31764;SDS011;18338;53.240;8.798;2022-12-29T03:25:55;7.05;;;6.38;;
31764;SDS011;18338;53.240;8.798;2022-12-29T03:28:30;6.65;;;6.15;;
31764;SDS011;18338;53.240;8.798;2022-12-29T03:31:01;7.05;;;6.47;;
31764;SDS011;18338;53.240;8.798;2022-12-29T03:33:30;7.00;;;6.30;;
31764;SDS011;18338;53.240;8.798;2022-12-29T03:35:59;6.68;;;6.18;;
31764;SDS011;18338;53.240;8.798;2022-12-29T03:41:13;5.97;;;5.47;;
31764;SDS011;18338;53.240;8.798;2022-12-29T03:43:45;6.55;;;6.05;;
31764;SDS011;18338;53.240;8.798;2022-12-29T03:46:12;5.20;;;4.80;;
31764;SDS011;18338;53.240;8.798;2022-12-29T03:48:39;4.80;;;4.40;;
31764;SDS011;18338;53.240;8.798;2022-12-29T03:51:06;6.68;;;4.63;;
31764;SDS011;18338;53.240;8.798;2022-12-29T03:53:32;4.60;;;4.13;;
31764;SDS011;18338;53.240;8.798;2022-12-29T03:55:59;4.35;;;3.72;;
31764;SDS011;18338;53.240;8.798;2022-12-29T03:58:26;4.18;;;3.88;;
31764;SDS011;18338;53.240;8.798;2022-12-29T04:00:52;4.00;;;3.70;;
31764;SDS011;18338;53.240;8.798;2022-12-29T04:03:19;4.07;;;3.78;;
31764;SDS011;18338;53.240;8.798;2022-12-29T04:05:45;3.33;;;3.08;;
31764;SDS011;18338;53.240;8.798;2022-12-29T04:08:12;4.30;;;3.90;;
31764;SDS011;18338;53.240;8.798;2022-12-29T04:10:39;4.43;;;4.05;;
31764;SDS011;18338;53.240;8.798;2022-12-29T04:13:06;4.93;;;4.53;;
31764;SDS011;18338;53.240;8.798;2022-12-29T04:15:33;5.55;;;4.90;;
31764;SDS011;18338;53.240;8.798;2022-12-29T04:18:00;5.60;;;5.10;;
31764;SDS011;18338;53.240;8.798;2022-12-29T04:20:27;6.40;;;5.90;;
31764;SDS011;18338;53.240;8.798;2022-12-29T04:23:12;5.57;;;5.10;;
31764;SDS011;18338;53.240;8.798;2022-12-29T04:25:39;5.82;;;5.32;;
31764;SDS011;18338;53.240;8.798;2022-12-29T04:28:06;6.05;;;5.60;;
31764;SDS011;18338;53.240;8.798;2022-12-29T04:30:34;5.60;;;5.10;;
31764;SDS011;18338;53.240;8.798;2022-12-29T04:33:00;5.85;;;5.35;;
31764;SDS011;18338;53.240;8.798;2022-12-29T04:35:27;6.15;;;5.65;;
31764;SDS011;18338;53.240;8.798;2022-12-29T04:37:54;6.47;;;5.95;;
31764;SDS011;18338;53.240;8.798;2022-12-29T04:40:21;6.82;;;6.15;;
31764;SDS011;18338;53.240;8.798;2022-12-29T04:42:49;8.23;;;6.30;;
31764;SDS011;18338;53.240;8.798;2022-12-29T04:45:16;7.20;;;6.50;;
31764;SDS011;18338;53.240;8.798;2022-12-29T04:47:43;8.05;;;7.20;;
31764;SDS011;18338;53.240;8.798;2022-12-29T04:50:10;8.55;;;7.38;;
31764;SDS011;18338;53.240;8.798;2022-12-29T04:52:37;8.80;;;7.75;;
31764;SDS011;18338;53.240;8.798;2022-12-29T04:55:04;9.02;;;7.22;;
31764;SDS011;18338;53.240;8.798;2022-12-29T04:57:32;6.95;;;5.82;;
31764;SDS011;18338;53.240;8.798;2022-12-29T04:59:59;5.43;;;4.95;;
31764;SDS011;18338;53.240;8.798;2022-12-29T05:02:26;5.05;;;4.65;;
31764;SDS011;18338;53.240;8.798;2022-12-29T05:04:53;5.28;;;4.85;;
31764;SDS011;18338;53.240;8.798;2022-12-29T05:07:20;4.90;;;4.47;;
31764;SDS011;18338;53.240;8.798;2022-12-29T05:09:47;5.72;;;4.15;;
31764;SDS011;18338;53.240;8.798;2022-12-29T05:12:20;4.00;;;3.70;;
31764;SDS011;18338;53.240;8.798;2022-12-29T05:14:59;3.80;;;3.50;;
31764;SDS011;18338;53.240;8.798;2022-12-29T05:17:28;3.20;;;2.90;;
31764;SDS011;18338;53.240;8.798;2022-12-29T05:19:55;3.42;;;2.90;;
31764;SDS011;18338;53.240;8.798;2022-12-29T05:22:22;3.72;;;2.53;;
31764;SDS011;18338;53.240;8.798;2022-12-29T05:24:49;2.80;;;2.60;;
31764;SDS011;18338;53.240;8.798;2022-12-29T05:27:16;2.60;;;2.40;;
31764;SDS011;18338;53.240;8.798;2022-12-29T05:29:43;2.67;;;2.47;;
31764;SDS011;18338;53.240;8.798;2022-12-29T05:32:09;2.35;;;1.95;;
31764;SDS011;18338;53.240;8.798;2022-12-29T05:34:36;2.03;;;1.90;;
31764;SDS011;18338;53.240;8.798;2022-12-29T05:37:03;2.90;;;1.70;;
31764;SDS011;18338;53.240;8.798;2022-12-29T05:39:30;1.75;;;1.65;;
31764;SDS011;18338;53.240;8.798;2022-12-29T05:41:57;1.75;;;1.60;;
31764;SDS011;18338;53.240;8.798;2022-12-29T05:44:23;2.20;;;1.67;;
31764;SDS011;18338;53.240;8.798;2022-12-29T05:46:50;2.08;;;1.50;;
31764;SDS011;18338;53.240;8.798;2022-12-29T05:49:17;2.80;;;1.65;;
31764;SDS011;18338;53.240;8.798;2022-12-29T05:51:44;4.00;;;1.88;;
31764;SDS011;18338;53.240;8.798;2022-12-29T05:54:11;2.03;;;1.50;;
31764;SDS011;18338;53.240;8.798;2022-12-29T05:56:37;2.40;;;1.48;;
31764;SDS011;18338;53.240;8.798;2022-12-29T05:59:04;1.05;;;1.00;;
31764;SDS011;18338;53.240;8.798;2022-12-29T06:01:31;1.75;;;1.00;;
31764;SDS011;18338;53.240;8.798;2022-12-29T06:03:59;1.13;;;0.90;;
31764;SDS011;18338;53.240;8.798;2022-12-29T06:06:27;0.90;;;0.73;;
31764;SDS011;18338;53.240;8.798;2022-12-29T06:08:53;1.67;;;0.93;;
31764;SDS011;18338;53.240;8.798;2022-12-29T06:11:20;1.27;;;0.80;;
31764;SDS011;18338;53.240;8.798;2022-12-29T06:13:47;2.00;;;1.10;;
31764;SDS011;18338;53.240;8.798;2022-12-29T06:16:14;1.33;;;0.98;;
31764;SDS011;18338;53.240;8.798;2022-12-29T06:18:40;1.50;;;0.70;;
31764;SDS011;18338;53.240;8.798;2022-12-29T06:21:07;1.42;;;1.08;;
31764;SDS011;18338;53.240;8.798;2022-12-29T06:23:34;1.00;;;0.90;;
31764;SDS011;18338;53.240;8.798;2022-12-29T06:26:02;1.48;;;1.20;;
31764;SDS011;18338;53.240;8.798;2022-12-29T06:28:28;3.70;;;1.27;;
31764;SDS011;18338;53.240;8.798;2022-12-29T06:30:55;2.10;;;1.40;;
31764;SDS011;18338;53.240;8.798;2022-12-29T06:33:23;3.35;;;1.90;;
31764;SDS011;18338;53.240;8.798;2022-12-29T06:35:50;5.18;;;1.58;;
31764;SDS011;18338;53.240;8.798;2022-12-29T06:38:17;2.08;;;1.67;;
31764;SDS011;18338;53.240;8.798;2022-12-29T06:40:44;2.78;;;1.38;;
31764;SDS011;18338;53.240;8.798;2022-12-29T06:43:11;3.95;;;1.50;;
31764;SDS011;18338;53.240;8.798;2022-12-29T06:45:38;4.22;;;1.10;;
31764;SDS011;18338;53.240;8.798;2022-12-29T06:48:06;1.45;;;1.15;;
31764;SDS011;18338;53.240;8.798;2022-12-29T06:50:33;2.10;;;0.85;;
31764;SDS011;18338;53.240;8.798;2022-12-29T06:53:00;1.52;;;0.82;;
31764;SDS011;18338;53.240;8.798;2022-12-29T06:55:27;0.95;;;0.70;;
31764;SDS011;18338;53.240;8.798;2022-12-29T06:57:57;1.35;;;0.90;;
31764;SDS011;18338;53.240;8.798;2022-12-29T07:00:24;1.05;;;0.60;;
31764;SDS011;18338;53.240;8.798;2022-12-29T07:02:51;3.63;;;1.08;;
31764;SDS011;18338;53.240;8.798;2022-12-29T07:05:18;1.60;;;0.80;;
31764;SDS011;18338;53.240;8.798;2022-12-29T07:07:45;1.10;;;0.80;;
31764;SDS011;18338;53.240;8.798;2022-12-29T07:10:12;2.10;;;0.70;;
31764;SDS011;18338;53.240;8.798;2022-12-29T07:12:39;2.17;;;1.20;;
31764;SDS011;18338;53.240;8.798;2022-12-29T07:15:05;1.58;;;1.20;;
31764;SDS011;18338;53.240;8.798;2022-12-29T07:17:32;2.08;;;1.27;;
31764;SDS011;18338;53.240;8.798;2022-12-29T07:19:59;2.20;;;1.23;;
31764;SDS011;18338;53.240;8.798;2022-12-29T07:22:26;3.40;;;1.38;;
31764;SDS011;18338;53.240;8.798;2022-12-29T07:24:52;2.72;;;1.50;;
31764;SDS011;18338;53.240;8.798;2022-12-29T07:27:19;2.33;;;1.40;;
31764;SDS011;18338;53.240;8.798;2022-12-29T07:29:45;1.55;;;1.20;;
31764;SDS011;18338;53.240;8.798;2022-12-29T07:32:12;3.58;;;1.48;;
31764;SDS011;18338;53.240;8.798;2022-12-29T07:34:39;2.63;;;0.98;;
31764;SDS011;18338;53.240;8.798;2022-12-29T07:37:06;4.43;;;1.30;;
31764;SDS011;18338;53.240;8.798;2022-12-29T07:39:32;3.10;;;1.30;;
31764;SDS011;18338;53.240;8.798;2022-12-29T07:41:59;1.95;;;1.10;;
31764;SDS011;18338;53.240;8.798;2022-12-29T07:44:30;2.08;;;0.90;;
31764;SDS011;18338;53.240;8.798;2022-12-29T07:46:56;4.00;;;1.17;;
31764;SDS011;18338;53.240;8.798;2022-12-29T07:49:24;3.20;;;1.50;;
31764;SDS011;18338;53.240;8.798;2022-12-29T07:51:52;2.60;;;1.02;;
31764;SDS011;18338;53.240;8.798;2022-12-29T07:54:19;2.53;;;1.10;;
31764;SDS011;18338;53.240;8.798;2022-12-29T07:56:45;1.15;;;1.00;;
31764;SDS011;18338;53.240;8.798;2022-12-29T07:59:12;1.95;;;1.00;;
31764;SDS011;18338;53.240;8.798;2022-12-29T08:01:39;1.98;;;1.20;;
31764;SDS011;18338;53.240;8.798;2022-12-29T08:04:06;2.72;;;1.00;;
31764;SDS011;18338;53.240;8.798;2022-12-29T08:06:33;2.45;;;0.90;;
31764;SDS011;18338;53.240;8.798;2022-12-29T08:08:59;2.88;;;1.40;;
31764;SDS011;18338;53.240;8.798;2022-12-29T08:11:37;1.85;;;0.85;;
31764;SDS011;18338;53.240;8.798;2022-12-29T08:14:04;2.17;;;0.82;;
31764;SDS011;18338;53.240;8.798;2022-12-29T08:16:31;1.38;;;0.70;;
31764;SDS011;18338;53.240;8.798;2022-12-29T08:18:58;1.20;;;0.85;;
31764;SDS011;18338;53.240;8.798;2022-12-29T08:21:26;2.42;;;0.80;;
31764;SDS011;18338;53.240;8.798;2022-12-29T08:23:54;1.45;;;0.98;;
31764;SDS011;18338;53.240;8.798;2022-12-29T08:26:21;3.35;;;1.00;;
31764;SDS011;18338;53.240;8.798;2022-12-29T08:28:49;3.50;;;1.73;;
31764;SDS011;18338;53.240;8.798;2022-12-29T08:31:23;3.88;;;0.88;;
31764;SDS011;18338;53.240;8.798;2022-12-29T08:33:50;7.75;;;6.82;;
31764;SDS011;18338;53.240;8.798;2022-12-29T08:36:17;1.27;;;0.60;;
31764;SDS011;18338;53.240;8.798;2022-12-29T08:38:44;2.90;;;0.63;;
31764;SDS011;18338;53.240;8.798;2022-12-29T08:41:11;2.22;;;0.90;;
31764;SDS011;18338;53.240;8.798;2022-12-29T08:43:38;3.42;;;0.93;;
31764;SDS011;18338;53.240;8.798;2022-12-29T08:46:07;3.05;;;2.10;;
31764;SDS011;18338;53.240;8.798;2022-12-29T08:48:43;1.38;;;0.52;;
31764;SDS011;18338;53.240;8.798;2022-12-29T08:51:10;2.60;;;0.80;;
31764;SDS011;18338;53.240;8.798;2022-12-29T08:53:36;3.30;;;0.80;;
31764;SDS011;18338;53.240;8.798;2022-12-29T08:56:03;2.10;;;0.93;;
31764;SDS011;18338;53.240;8.798;2022-12-29T08:58:31;3.45;;;1.10;;
31764;SDS011;18338;53.240;8.798;2022-12-29T09:00:58;3.95;;;0.68;;
31764;SDS011;18338;53.240;8.798;2022-12-29T09:03:25;5.07;;;1.02;;
31764;SDS011;18338;53.240;8.798;2022-12-29T09:06:12;3.90;;;1.13;;
31764;SDS011;18338;53.240;8.798;2022-12-29T09:08:40;2.80;;;0.80;;
31764;SDS011;18338;53.240;8.798;2022-12-29T09:11:11;3.03;;;0.95;;
31764;SDS011;18338;53.240;8.798;2022-12-29T09:13:43;4.15;;;0.90;;
31764;SDS011;18338;53.240;8.798;2022-12-29T09:16:10;3.58;;;1.30;;
31764;SDS011;18338;53.240;8.798;2022-12-29T09:18:37;4.82;;;1.17;;
31764;SDS011;18338;53.240;8.798;2022-12-29T09:21:04;3.28;;;0.93;;
31764;SDS011;18338;53.240;8.798;2022-12-29T09:23:32;2.38;;;0.95;;
31764;SDS011;18338;53.240;8.798;2022-12-29T09:25:59;2.20;;;0.90;;
31764;SDS011;18338;53.240;8.798;2022-12-29T09:28:26;4.38;;;1.23;;
31764;SDS011;18338;53.240;8.798;2022-12-29T09:30:54;2.38;;;0.70;;
31764;SDS011;18338;53.240;8.798;2022-12-29T09:33:22;3.25;;;0.75;;
31764;SDS011;18338;53.240;8.798;2022-12-29T09:35:51;2.65;;;0.80;;
31764;SDS011;18338;53.240;8.798;2022-12-29T09:38:19;3.75;;;0.60;;
31764;SDS011;18338;53.240;8.798;2022-12-29T09:40:50;2.88;;;0.70;;
31764;SDS011;18338;53.240;8.798;2022-12-29T09:46:10;2.97;;;0.88;;
31764;SDS011;18338;53.240;8.798;2022-12-29T09:49:01;4.70;;;0.98;;
31764;SDS011;18338;53.240;8.798;2022-12-29T09:51:30;2.95;;;1.00;;
31764;SDS011;18338;53.240;8.798;2022-12-29T09:53:58;3.55;;;0.75;;
31764;SDS011;18338;53.240;8.798;2022-12-29T09:56:39;6.10;;;0.80;;
31764;SDS011;18338;53.240;8.798;2022-12-29T09:59:08;6.22;;;1.10;;
31764;SDS011;18338;53.240;8.798;2022-12-29T10:01:51;2.83;;;0.57;;
31764;SDS011;18338;53.240;8.798;2022-12-29T10:04:26;3.58;;;1.00;;
31764;SDS011;18338;53.240;8.798;2022-12-29T10:06:56;3.20;;;0.77;;
31764;SDS011;18338;53.240;8.798;2022-12-29T10:16:11;4.45;;;1.00;;
31764;SDS011;18338;53.240;8.798;2022-12-29T10:18:56;2.70;;;0.70;;
31764;SDS011;18338;53.240;8.798;2022-12-29T10:21:47;2.90;;;0.73;;
31764;SDS011;18338;53.240;8.798;2022-12-29T10:24:28;2.72;;;0.75;;
31764;SDS011;18338;53.240;8.798;2022-12-29T10:26:56;5.80;;;2.72;;
31764;SDS011;18338;53.240;8.798;2022-12-29T10:29:32;14.27;;;8.02;;
31764;SDS011;18338;53.240;8.798;2022-12-29T10:32:03;4.20;;;2.03;;
31764;SDS011;18338;53.240;8.798;2022-12-29T10:34:34;10.80;;;5.18;;
31764;SDS011;18338;53.240;8.798;2022-12-29T10:40:27;4.22;;;1.90;;
31764;SDS011;18338;53.240;8.798;2022-12-29T10:43:07;1.90;;;0.55;;
31764;SDS011;18338;53.240;8.798;2022-12-29T10:45:59;1.50;;;0.60;;
31764;SDS011;18338;53.240;8.798;2022-12-29T10:48:30;3.22;;;0.93;;
31764;SDS011;18338;53.240;8.798;2022-12-29T10:50:59;3.10;;;0.70;;
31764;SDS011;18338;53.240;8.798;2022-12-29T10:53:40;4.10;;;1.70;;
31764;SDS011;18338;53.240;8.798;2022-12-29T10:56:15;3.30;;;0.70;;
31764;SDS011;18338;53.240;8.798;2022-12-29T10:58:54;2.95;;;0.93;;
31764;SDS011;18338;53.240;8.798;2022-12-29T11:01:24;2.53;;;1.00;;
31764;SDS011;18338;53.240;8.798;2022-12-29T11:06:38;2.67;;;1.08;;
31764;SDS011;18338;53.240;8.798;2022-12-29T11:09:10;3.17;;;2.30;;
31764;SDS011;18338;53.240;8.798;2022-12-29T11:11:46;2.33;;;1.10;;
31764;SDS011;18338;53.240;8.798;2022-12-29T11:14:14;4.68;;;1.73;;
31764;SDS011;18338;53.240;8.798;2022-12-29T11:16:56;8.07;;;4.30;;
31764;SDS011;18338;53.240;8.798;2022-12-29T11:19:28;2.42;;;0.98;;
31764;SDS011;18338;53.240;8.798;2022-12-29T11:22:22;6.10;;;1.85;;
31764;SDS011;18338;53.240;8.798;2022-12-29T11:24:52;5.95;;;0.80;;
31764;SDS011;18338;53.240;8.798;2022-12-29T11:27:24;3.88;;;1.30;;
31764;SDS011;18338;53.240;8.798;2022-12-29T11:29:53;6.20;;;2.45;;
31764;SDS011;18338;53.240;8.798;2022-12-29T11:32:21;7.00;;;2.72;;
31764;SDS011;18338;53.240;8.798;2022-12-29T11:34:55;3.97;;;1.42;;
31764;SDS011;18338;53.240;8.798;2022-12-29T11:37:31;5.85;;;1.90;;
31764;SDS011;18338;53.240;8.798;2022-12-29T11:40:15;5.30;;;1.55;;
31764;SDS011;18338;53.240;8.798;2022-12-29T11:42:52;5.78;;;1.67;;
31764;SDS011;18338;53.240;8.798;2022-12-29T11:45:22;4.72;;;0.90;;
31764;SDS011;18338;53.240;8.798;2022-12-29T11:47:59;6.45;;;1.00;;
31764;SDS011;18338;53.240;8.798;2022-12-29T11:50:32;6.10;;;1.42;;
31764;SDS011;18338;53.240;8.798;2022-12-29T11:53:03;8.30;;;2.17;;
31764;SDS011;18338;53.240;8.798;2022-12-29T11:56:02;3.22;;;1.05;;
31764;SDS011;18338;53.240;8.798;2022-12-29T11:58:36;3.38;;;1.35;;
31764;SDS011;18338;53.240;8.798;2022-12-29T12:01:06;4.82;;;1.20;;
31764;SDS011;18338;53.240;8.798;2022-12-29T12:03:35;6.90;;;2.30;;
31764;SDS011;18338;53.240;8.798;2022-12-29T12:06:07;6.07;;;2.08;;
31764;SDS011;18338;53.240;8.798;2022-12-29T12:09:14;9.05;;;2.60;;
31764;SDS011;18338;53.240;8.798;2022-12-29T12:11:40;12.75;;;5.68;;
31764;SDS011;18338;53.240;8.798;2022-12-29T12:17:05;6.78;;;2.80;;
31764;SDS011;18338;53.240;8.798;2022-12-29T12:19:39;4.70;;;0.93;;
31764;SDS011;18338;53.240;8.798;2022-12-29T12:22:30;4.40;;;1.20;;
31764;SDS011;18338;53.240;8.798;2022-12-29T12:25:23;5.60;;;0.80;;
31764;SDS011;18338;53.240;8.798;2022-12-29T12:28:02;5.18;;;1.60;;
31764;SDS011;18338;53.240;8.798;2022-12-29T12:30:48;5.15;;;1.08;;
31764;SDS011;18338;53.240;8.798;2022-12-29T12:36:14;4.22;;;1.48;;
31764;SDS011;18338;53.240;8.798;2022-12-29T12:38:56;6.18;;;0.90;;
31764;SDS011;18338;53.240;8.798;2022-12-29T12:44:45;5.63;;;0.90;;
31764;SDS011;18338;53.240;8.798;2022-12-29T12:47:27;4.18;;;0.95;;
31764;SDS011;18338;53.240;8.798;2022-12-29T12:50:13;4.40;;;1.25;;
31764;SDS011;18338;53.240;8.798;2022-12-29T12:53:03;2.10;;;1.20;;
31764;SDS011;18338;53.240;8.798;2022-12-29T12:55:48;2.40;;;0.60;;
31764;SDS011;18338;53.240;8.798;2022-12-29T13:09:32;3.67;;;1.08;;
31764;SDS011;18338;53.240;8.798;2022-12-29T13:12:14;3.58;;;1.00;;
31764;SDS011;18338;53.240;8.798;2022-12-29T13:20:01;1.98;;;0.70;;
31764;SDS011;18338;53.240;8.798;2022-12-29T13:22:49;6.10;;;1.27;;
31764;SDS011;18338;53.240;8.798;2022-12-29T13:28:06;3.08;;;1.00;;
31764;SDS011;18338;53.240;8.798;2022-12-29T13:31:08;3.40;;;1.33;;
31764;SDS011;18338;53.240;8.798;2022-12-29T13:33:55;3.03;;;1.40;;
31764;SDS011;18338;53.240;8.798;2022-12-29T13:36:45;2.97;;;0.90;;
31764;SDS011;18338;53.240;8.798;2022-12-29T13:39:34;3.60;;;2.40;;
31764;SDS011;18338;53.240;8.798;2022-12-29T13:42:08;5.25;;;1.70;;
31764;SDS011;18338;53.240;8.798;2022-12-29T13:44:47;4.45;;;1.80;;
31764;SDS011;18338;53.240;8.798;2022-12-29T13:49:55;3.78;;;1.13;;
31764;SDS011;18338;53.240;8.798;2022-12-29T13:55:39;4.78;;;1.05;;
31764;SDS011;18338;53.240;8.798;2022-12-29T13:58:17;4.35;;;1.33;;
31764;SDS011;18338;53.240;8.798;2022-12-29T14:03:54;2.78;;;1.05;;
31764;SDS011;18338;53.240;8.798;2022-12-29T14:06:29;3.75;;;1.23;;
31764;SDS011;18338;53.240;8.798;2022-12-29T14:11:30;1.80;;;0.80;;
31764;SDS011;18338;53.240;8.798;2022-12-29T14:14:12;6.30;;;1.50;;
31764;SDS011;18338;53.240;8.798;2022-12-29T14:16:47;10.27;;;1.52;;
31764;SDS011;18338;53.240;8.798;2022-12-29T14:19:16;5.22;;;2.00;;
31764;SDS011;18338;53.240;8.798;2022-12-29T14:21:54;5.25;;;1.42;;
31764;SDS011;18338;53.240;8.798;2022-12-29T14:32:47;3.80;;;1.85;;
31764;SDS011;18338;53.240;8.798;2022-12-29T14:34:58;5.53;;;1.40;;
31764;SDS011;18338;53.240;8.798;2022-12-29T14:37:28;4.90;;;1.50;;
31764;SDS011;18338;53.240;8.798;2022-12-29T14:42:49;6.93;;;3.55;;
31764;SDS011;18338;53.240;8.798;2022-12-29T14:47:45;6.72;;;2.83;;
31764;SDS011;18338;53.240;8.798;2022-12-29T14:50:20;7.13;;;1.80;;
31764;SDS011;18338;53.240;8.798;2022-12-29T14:57:59;5.40;;;1.60;;
31764;SDS011;18338;53.240;8.798;2022-12-29T15:00:29;4.50;;;1.23;;
31764;SDS011;18338;53.240;8.798;2022-12-29T15:05:44;6.68;;;1.67;;
31764;SDS011;18338;53.240;8.798;2022-12-29T15:08:39;6.80;;;1.83;;
31764;SDS011;18338;53.240;8.798;2022-12-29T15:11:18;4.82;;;1.55;;
31764;SDS011;18338;53.240;8.798;2022-12-29T15:16:54;7.85;;;1.52;;
31764;SDS011;18338;53.240;8.798;2022-12-29T15:19:22;5.47;;;2.05;;
31764;SDS011;18338;53.240;8.798;2022-12-29T15:21:52;8.90;;;1.70;;
31764;SDS011;18338;53.240;8.798;2022-12-29T15:24:22;4.82;;;1.95;;
31764;SDS011;18338;53.240;8.798;2022-12-29T15:26:50;5.75;;;1.35;;
31764;SDS011;18338;53.240;8.798;2022-12-29T15:29:29;5.22;;;1.35;;
31764;SDS011;18338;53.240;8.798;2022-12-29T15:32:10;4.85;;;1.52;;
31764;SDS011;18338;53.240;8.798;2022-12-29T15:34:42;5.47;;;1.58;;
31764;SDS011;18338;53.240;8.798;2022-12-29T15:37:16;7.45;;;2.05;;
31764;SDS011;18338;53.240;8.798;2022-12-29T15:39:45;4.97;;;1.45;;
31764;SDS011;18338;53.240;8.798;2022-12-29T15:42:19;4.68;;;1.80;;
31764;SDS011;18338;53.240;8.798;2022-12-29T15:44:47;5.75;;;1.60;;
31764;SDS011;18338;53.240;8.798;2022-12-29T15:47:28;5.63;;;1.73;;
31764;SDS011;18338;53.240;8.798;2022-12-29T15:49:59;5.63;;;1.65;;
31764;SDS011;18338;53.240;8.798;2022-12-29T15:52:27;4.75;;;1.42;;
31764;SDS011;18338;53.240;8.798;2022-12-29T15:54:55;5.15;;;1.45;;
31764;SDS011;18338;53.240;8.798;2022-12-29T15:57:31;5.38;;;2.15;;
31764;SDS011;18338;53.240;8.798;2022-12-29T16:03:13;9.05;;;4.05;;
31764;SDS011;18338;53.240;8.798;2022-12-29T16:05:42;4.60;;;2.33;;
31764;SDS011;18338;53.240;8.798;2022-12-29T16:08:21;7.88;;;2.70;;
31764;SDS011;18338;53.240;8.798;2022-12-29T16:10:51;7.80;;;2.25;;
31764;SDS011;18338;53.240;8.798;2022-12-29T16:13:26;6.82;;;2.42;;
31764;SDS011;18338;53.240;8.798;2022-12-29T16:16:09;6.45;;;2.92;;
31764;SDS011;18338;53.240;8.798;2022-12-29T16:18:47;7.65;;;3.25;;
31764;SDS011;18338;53.240;8.798;2022-12-29T16:21:23;4.55;;;1.70;;
31764;SDS011;18338;53.240;8.798;2022-12-29T16:24:09;7.32;;;2.22;;
31764;SDS011;18338;53.240;8.798;2022-12-29T16:26:45;6.72;;;2.20;;
31764;SDS011;18338;53.240;8.798;2022-12-29T16:29:14;6.43;;;2.33;;
31764;SDS011;18338;53.240;8.798;2022-12-29T16:37:00;7.68;;;3.78;;
31764;SDS011;18338;53.240;8.798;2022-12-29T16:39:35;8.05;;;2.40;;
31764;SDS011;18338;53.240;8.798;2022-12-29T16:47:47;7.50;;;2.80;;
31764;SDS011;18338;53.240;8.798;2022-12-29T16:50:26;7.53;;;3.03;;
31764;SDS011;18338;53.240;8.798;2022-12-29T16:52:54;6.82;;;2.67;;
31764;SDS011;18338;53.240;8.798;2022-12-29T16:55:23;7.00;;;2.25;;
31764;SDS011;18338;53.240;8.798;2022-12-29T16:57:51;5.70;;;1.90;;
31764;SDS011;18338;53.240;8.798;2022-12-29T17:00:29;6.15;;;2.50;;
31764;SDS011;18338;53.240;8.798;2022-12-29T17:03:01;7.82;;;2.40;;
31764;SDS011;18338;53.240;8.798;2022-12-29T17:05:29;9.30;;;4.07;;
31764;SDS011;18338;53.240;8.798;2022-12-29T17:07:56;9.15;;;2.90;;
31764;SDS011;18338;53.240;8.798;2022-12-29T17:10:27;8.60;;;2.55;;
31764;SDS011;18338;53.240;8.798;2022-12-29T17:13:14;6.00;;;3.40;;
31764;SDS011;18338;53.240;8.798;2022-12-29T17:15:40;7.10;;;2.80;;
31764;SDS011;18338;53.240;8.798;2022-12-29T17:18:07;7.13;;;2.40;;
31764;SDS011;18338;53.240;8.798;2022-12-29T17:20:39;4.75;;;2.33;;